createdAt,value
2023-04-09T00:02:01.633Z,0.15
2023-04-09T00:04:30.432Z,0.09
2023-04-09T00:07:00.399Z,0.06
2023-04-09T00:09:29.161Z,0.07
2023-04-09T00:11:58.307Z,0.07
2023-04-09T00:14:26.806Z,0.14
2023-04-09T00:16:55.539Z,0.18
2023-04-09T00:19:24.011Z,0.15
2023-04-09T00:21:53.131Z,0.13
2023-04-09T00:24:22.937Z,0.18
2023-04-09T00:26:51.696Z,0.19
2023-04-09T00:29:20.697Z,0.15
2023-04-09T00:31:49.416Z,0.10
2023-04-09T00:34:17.882Z,-0.26
2023-04-09T00:36:46.568Z,0.03
2023-04-09T00:39:15.453Z,-0.02
2023-04-09T00:41:45.205Z,-0.03
2023-04-09T00:44:13.587Z,-0.03
2023-04-09T00:46:42.492Z,-0.04
2023-04-09T00:49:11.305Z,-0.06
2023-04-09T00:51:40.246Z,-0.10
2023-04-09T00:54:09.189Z,-0.13
2023-04-09T00:56:38.328Z,-0.08
2023-04-09T00:59:08.510Z,-0.03
2023-04-09T01:01:37.259Z,0.02
2023-04-09T01:04:06.441Z,-0.01
2023-04-09T01:06:46.617Z,0.00
2023-04-09T01:09:25.915Z,0.06
2023-04-09T01:12:09.825Z,0.14
2023-04-09T01:14:50.690Z,0.15
2023-04-09T01:17:32.294Z,0.13
2023-04-09T01:20:10.456Z,-0.01
2023-04-09T01:22:54.474Z,0.11
2023-04-09T01:25:44.916Z,0.06
2023-04-09T01:28:22.182Z,-0.24
2023-04-09T01:31:02.220Z,-0.08
2023-04-09T01:33:33.560Z,-0.09
2023-04-09T01:36:04.120Z,-0.03
2023-04-09T01:38:34.486Z,0.05
2023-04-09T01:41:05.474Z,-0.28
2023-04-09T01:43:36.127Z,-0.02
2023-04-09T01:46:05.591Z,-0.08
2023-04-09T01:48:35.700Z,-0.15
2023-04-09T01:51:04.910Z,-0.22
2023-04-09T01:53:33.676Z,-0.26
2023-04-09T01:56:03.643Z,-0.54
2023-04-09T01:58:34.183Z,-0.30
2023-04-09T02:01:12.034Z,-0.32
2023-04-09T02:03:47.634Z,-0.31
2023-04-09T02:06:23.817Z,-0.31
2023-04-09T02:08:54.741Z,-0.34
2023-04-09T02:11:26.018Z,-0.36
2023-04-09T02:13:57.722Z,-0.48
2023-04-09T02:16:29.086Z,-0.44
2023-04-09T02:18:57.902Z,-0.56
2023-04-09T02:21:27.139Z,-0.53
2023-04-09T02:23:56.417Z,-0.56
2023-04-09T02:26:26.236Z,-0.61
2023-04-09T02:28:54.815Z,-0.61
2023-04-09T02:31:23.431Z,-0.57
2023-04-09T02:33:54.142Z,-0.54
2023-04-09T02:36:43.313Z,-0.54
2023-04-09T02:39:12.145Z,-0.56
2023-04-09T02:41:40.943Z,-0.49
2023-04-09T02:44:09.677Z,-0.54
2023-04-09T02:46:39.591Z,-0.61
2023-04-09T02:49:09.414Z,-0.62
2023-04-09T02:51:38.246Z,-0.63
2023-04-09T02:54:06.691Z,-0.61
2023-04-09T02:56:35.150Z,-0.88
2023-04-09T02:59:03.597Z,-0.60
2023-04-09T03:01:32.416Z,-0.62
2023-04-09T03:04:02.248Z,-1.20
2023-04-09T03:06:32.344Z,-0.60
2023-04-09T03:09:01.061Z,-0.54
2023-04-09T03:11:29.722Z,-0.50
2023-04-09T03:13:58.198Z,-0.51
2023-04-09T03:16:27.049Z,-0.54
2023-04-09T03:18:55.773Z,-0.57
2023-04-09T03:21:24.186Z,-0.57
2023-04-09T03:23:54.832Z,-0.58
2023-04-09T03:26:23.357Z,-0.58
2023-04-09T03:28:52.431Z,-0.59
2023-04-09T03:31:21.491Z,-0.60
2023-04-09T03:33:50.409Z,-0.61
2023-04-09T03:36:18.801Z,-0.60
2023-04-09T03:39:01.637Z,-0.88
2023-04-09T03:41:43.525Z,-0.64
2023-04-09T03:44:16.295Z,-0.65
2023-04-09T03:47:01.561Z,-0.64
2023-04-09T03:49:30.594Z,-0.64
2023-04-09T03:52:08.465Z,-0.54
2023-04-09T03:54:43.533Z,-0.52
2023-04-09T03:57:18.078Z,-0.55
2023-04-09T03:59:49.350Z,-0.54
2023-04-09T04:02:21.800Z,-0.57
2023-04-09T04:04:59.299Z,-0.61
2023-04-09T04:07:33.820Z,-0.69
2023-04-09T04:10:12.736Z,-0.80
2023-04-09T04:12:45.976Z,-0.84
2023-04-09T04:15:24.073Z,-0.84
2023-04-09T04:17:56.608Z,-0.86
2023-04-09T04:20:41.341Z,-0.86
2023-04-09T04:23:15.844Z,-0.85
2023-04-09T04:25:54.256Z,-0.84
2023-04-09T04:28:29.992Z,-0.83
2023-04-09T04:30:59.217Z,-0.81
2023-04-09T04:33:29.142Z,-0.81
2023-04-09T04:36:07.476Z,-0.90
2023-04-09T04:38:43.262Z,-0.72
2023-04-09T04:41:21.967Z,-0.67
2023-04-09T04:43:59.908Z,-0.52
2023-04-09T04:46:28.684Z,-0.42
2023-04-09T04:48:57.439Z,-0.34
2023-04-09T04:51:27.700Z,-0.34
2023-04-09T04:54:07.848Z,-0.38
2023-04-09T04:56:37.727Z,-0.41
2023-04-09T04:59:15.364Z,-0.41
2023-04-09T05:02:02.601Z,-0.33
2023-04-09T05:04:35.531Z,-0.21
2023-04-09T05:07:04.983Z,-0.10
2023-04-09T05:09:33.730Z,0.03
2023-04-09T05:12:07.567Z,0.19
2023-04-09T05:14:36.637Z,0.33
2023-04-09T05:17:05.427Z,0.41
2023-04-09T05:19:43.026Z,0.06
2023-04-09T05:22:13.541Z,0.52
2023-04-09T05:24:42.236Z,0.57
2023-04-09T05:27:13.410Z,0.62
2023-04-09T05:29:42.982Z,0.68
2023-04-09T05:32:12.338Z,0.74
2023-04-09T05:34:41.837Z,0.80
2023-04-09T05:37:10.330Z,0.87
2023-04-09T05:39:39.186Z,0.92
2023-04-09T05:42:08.061Z,0.98
2023-04-09T05:44:47.162Z,1.02
2023-04-09T05:47:20.666Z,0.77
2023-04-09T05:50:04.375Z,1.30
2023-04-09T05:52:33.498Z,1.40
2023-04-09T05:55:02.040Z,1.52
2023-04-09T05:57:45.496Z,1.70
2023-04-09T06:00:18.270Z,1.87
2023-04-09T06:02:47.972Z,1.96
2023-04-09T06:05:16.787Z,1.95
2023-04-09T06:07:47.517Z,2.05
2023-04-09T06:10:16.546Z,2.13
2023-04-09T06:12:45.677Z,2.22
2023-04-09T06:15:15.849Z,2.31
2023-04-09T06:17:44.626Z,2.38
2023-04-09T06:20:13.477Z,2.44
2023-04-09T06:22:41.907Z,2.51
2023-04-09T06:25:10.901Z,2.60
2023-04-09T06:27:39.638Z,2.74
2023-04-09T06:30:10.602Z,2.90
2023-04-09T06:32:53.057Z,3.01
2023-04-09T06:35:22.595Z,2.81
2023-04-09T06:37:51.330Z,3.11
2023-04-09T06:40:22.910Z,3.17
2023-04-09T06:42:51.761Z,3.08
2023-04-09T06:45:29.623Z,3.45
2023-04-09T06:48:00.189Z,3.64
2023-04-09T06:50:29.081Z,4.01
2023-04-09T06:52:58.836Z,4.23
2023-04-09T06:55:28.012Z,4.51
2023-04-09T06:57:56.470Z,4.43
2023-04-09T07:00:24.922Z,4.74
2023-04-09T07:02:54.910Z,4.64
2023-04-09T07:05:25.163Z,4.67
2023-04-09T07:07:53.616Z,4.47
2023-04-09T07:10:22.329Z,4.53
2023-04-09T07:12:50.977Z,4.49
2023-04-09T07:15:19.403Z,4.61
2023-04-09T07:17:48.242Z,4.76
2023-04-09T07:20:16.808Z,4.80
2023-04-09T07:22:46.679Z,4.90
2023-04-09T07:25:16.130Z,4.95
2023-04-09T07:27:44.654Z,4.93
2023-04-09T07:30:13.451Z,5.57
2023-04-09T07:32:41.886Z,6.14
2023-04-09T07:35:11.869Z,6.34
2023-04-09T07:37:40.469Z,6.73
2023-04-09T07:40:11.526Z,6.74
2023-04-09T07:42:40.648Z,6.85
2023-04-09T07:45:10.384Z,7.15
2023-04-09T07:47:40.871Z,7.47
2023-04-09T07:50:11.363Z,7.54
2023-04-09T07:52:39.800Z,8.10
2023-04-09T07:55:10.290Z,8.34
2023-04-09T07:57:38.698Z,8.23
2023-04-09T08:00:08.933Z,8.00
2023-04-09T08:02:45.719Z,8.20
2023-04-09T08:05:14.711Z,8.78
2023-04-09T08:07:43.206Z,9.09
2023-04-09T08:10:16.179Z,9.46
2023-04-09T08:12:44.862Z,9.64
2023-04-09T08:15:13.407Z,9.84
2023-04-09T08:17:41.917Z,9.94
2023-04-09T08:20:12.274Z,10.06
2023-04-09T08:22:42.142Z,10.34
2023-04-09T08:25:12.058Z,10.59
2023-04-09T08:27:40.723Z,10.82
2023-04-09T08:30:11.128Z,10.77
2023-04-09T08:32:39.619Z,10.96
2023-04-09T08:35:09.676Z,11.13
2023-04-09T08:37:38.362Z,11.50
2023-04-09T08:40:09.078Z,11.58
2023-04-09T08:42:46.456Z,11.69
2023-04-09T08:45:15.494Z,11.69
2023-04-09T08:47:45.624Z,11.84
2023-04-09T08:50:15.782Z,11.84
2023-04-09T08:52:47.537Z,11.84
2023-04-09T08:55:15.949Z,11.91
2023-04-09T08:57:45.971Z,11.98
2023-04-09T09:00:15.313Z,12.20
2023-04-09T09:03:06.599Z,12.35
2023-04-09T09:05:40.290Z,12.35
2023-04-09T09:08:10.544Z,12.84
2023-04-09T09:10:41.439Z,12.93
2023-04-09T09:13:23.748Z,12.67
2023-04-09T09:15:55.274Z,12.41
2023-04-09T09:18:39.442Z,12.50
2023-04-09T09:21:15.713Z,12.82
2023-04-09T09:23:44.952Z,12.97
2023-04-09T09:26:16.355Z,13.04
2023-04-09T09:28:46.924Z,12.65
2023-04-09T09:31:16.778Z,12.51
2023-04-09T09:33:45.364Z,11.75
2023-04-09T09:36:14.039Z,11.65
2023-04-09T09:38:57.152Z,11.59
2023-04-09T09:41:27.327Z,11.35
2023-04-09T09:43:57.214Z,11.01
2023-04-09T09:46:28.250Z,11.02
2023-04-09T09:48:57.677Z,10.68
2023-04-09T09:51:31.172Z,11.60
2023-04-09T09:54:01.048Z,11.70
2023-04-09T09:56:35.843Z,11.95
2023-04-09T09:59:14.307Z,12.36
2023-04-09T10:01:43.563Z,12.64
2023-04-09T10:04:17.269Z,12.76
2023-04-09T10:06:47.170Z,12.99
2023-04-09T10:09:16.175Z,13.39
2023-04-09T10:11:48.036Z,13.89
2023-04-09T10:14:19.533Z,14.38
2023-04-09T10:16:48.660Z,14.28
2023-04-09T10:19:17.546Z,14.17
2023-04-09T10:21:54.996Z,14.20
2023-04-09T10:24:24.473Z,13.83
2023-04-09T10:26:56.223Z,14.26
2023-04-09T10:29:30.759Z,14.21
2023-04-09T10:32:07.360Z,14.27
2023-04-09T10:34:40.420Z,14.54
2023-04-09T10:37:10.768Z,14.48
2023-04-09T10:39:45.662Z,14.68
2023-04-09T10:42:19.223Z,15.06
2023-04-09T10:45:07.812Z,15.63
2023-04-09T10:47:38.783Z,15.91
2023-04-09T10:50:19.028Z,15.70
2023-04-09T10:52:48.492Z,15.25
2023-04-09T10:55:38.022Z,15.22
2023-04-09T10:58:09.075Z,14.94
2023-04-09T11:00:42.948Z,14.24
2023-04-09T11:03:24.467Z,14.36
2023-04-09T11:06:00.993Z,14.35
2023-04-09T11:08:34.451Z,14.42
2023-04-09T11:11:04.216Z,13.96
2023-04-09T11:13:34.719Z,14.00
2023-04-09T11:16:06.960Z,13.18
2023-04-09T11:18:37.180Z,13.16
2023-04-09T11:21:06.080Z,13.10
2023-04-09T11:23:35.721Z,13.13
2023-04-09T11:26:05.302Z,13.23
2023-04-09T11:28:36.319Z,13.02
2023-04-09T11:31:08.125Z,13.10
2023-04-09T11:33:36.912Z,13.33
2023-04-09T11:36:07.557Z,13.28
2023-04-09T11:38:38.122Z,13.21
2023-04-09T11:41:06.653Z,13.23
2023-04-09T11:43:37.908Z,12.97
2023-04-09T11:46:09.146Z,12.89
2023-04-09T11:48:38.202Z,12.74
2023-04-09T11:51:07.377Z,12.31
2023-04-09T11:53:39.084Z,12.48
2023-04-09T11:56:08.298Z,12.25
2023-04-09T11:58:37.636Z,12.40
2023-04-09T12:01:07.573Z,12.44
2023-04-09T12:03:37.540Z,12.55
2023-04-09T12:06:07.901Z,12.65
2023-04-09T12:08:37.385Z,12.66
2023-04-09T12:11:13.777Z,12.72
2023-04-09T12:13:43.465Z,12.83
2023-04-09T12:16:13.697Z,13.06
2023-04-09T12:18:42.459Z,13.36
2023-04-09T12:21:11.295Z,13.28
2023-04-09T12:23:39.838Z,13.52
2023-04-09T12:26:08.402Z,13.46
2023-04-09T12:28:36.998Z,13.20
2023-04-09T12:31:06.013Z,12.64
2023-04-09T12:33:38.876Z,12.79
2023-04-09T12:36:07.510Z,12.77
2023-04-09T12:38:35.997Z,12.78
2023-04-09T12:41:04.583Z,12.72
2023-04-09T12:43:32.969Z,12.94
2023-04-09T12:46:01.628Z,13.26
2023-04-09T12:48:30.061Z,13.39
2023-04-09T12:50:59.879Z,13.44
2023-04-09T12:53:28.425Z,13.39
2023-04-09T12:55:57.106Z,13.35
2023-04-09T12:58:25.930Z,13.47
2023-04-09T13:00:56.873Z,13.41
2023-04-09T13:03:27.321Z,13.73
2023-04-09T13:05:56.017Z,13.81
2023-04-09T13:08:25.905Z,13.75
2023-04-09T13:10:54.447Z,14.11
2023-04-09T13:13:22.965Z,14.20
2023-04-09T13:15:52.176Z,14.29
2023-04-09T13:18:20.728Z,14.52
2023-04-09T13:20:49.282Z,14.48
2023-04-09T13:23:17.774Z,14.79
2023-04-09T13:25:47.514Z,15.29
2023-04-09T13:28:16.043Z,15.60
2023-04-09T13:30:44.506Z,15.78
2023-04-09T13:33:12.952Z,15.92
2023-04-09T13:35:41.464Z,16.14
2023-04-09T13:38:09.927Z,16.36
2023-04-09T13:40:38.674Z,16.37
2023-04-09T13:43:08.574Z,15.84
2023-04-09T13:45:37.122Z,15.10
2023-04-09T13:48:07.871Z,15.27
2023-04-09T13:50:36.885Z,15.91
2023-04-09T13:53:06.030Z,15.97
2023-04-09T13:55:34.483Z,16.13
2023-04-09T13:58:03.035Z,15.67
2023-04-09T14:00:34.444Z,15.21
2023-04-09T14:03:03.629Z,15.80
2023-04-09T14:05:32.777Z,16.14
2023-04-09T14:08:01.479Z,16.15
2023-04-09T14:10:30.714Z,15.81
2023-04-09T14:12:59.405Z,15.47
2023-04-09T14:15:28.134Z,15.45
2023-04-09T14:17:57.999Z,15.74
2023-04-09T14:20:26.498Z,15.57
2023-04-09T14:22:55.460Z,15.18
2023-04-09T14:25:23.947Z,14.83
2023-04-09T14:27:52.392Z,14.46
2023-04-09T14:30:20.900Z,14.56
2023-04-09T14:32:49.389Z,14.82
2023-04-09T14:35:19.331Z,15.02
2023-04-09T14:37:47.845Z,15.15
2023-04-09T14:40:16.377Z,14.84
2023-04-09T14:42:44.845Z,15.18
2023-04-09T14:45:13.464Z,15.51
2023-04-09T14:47:41.906Z,15.80
2023-04-09T14:50:12.828Z,15.83
2023-04-09T14:52:42.787Z,15.97
2023-04-09T14:55:12.506Z,16.06
2023-04-09T14:57:41.935Z,16.25
2023-04-09T15:00:12.738Z,16.35
2023-04-09T15:02:41.633Z,16.15
2023-04-09T15:05:11.538Z,15.98
2023-04-09T15:07:40.134Z,15.69
2023-04-09T15:10:11.546Z,15.76
2023-04-09T15:12:40.051Z,15.85
2023-04-09T15:15:10.416Z,15.65
2023-04-09T15:17:38.936Z,15.56
2023-04-09T15:20:08.989Z,14.84
2023-04-09T15:22:37.545Z,15.56
2023-04-09T15:25:07.028Z,15.95
2023-04-09T15:27:36.992Z,15.91
2023-04-09T15:30:07.104Z,15.71
2023-04-09T15:32:35.581Z,15.37
2023-04-09T15:35:04.113Z,15.36
2023-04-09T15:37:32.688Z,15.56
2023-04-09T15:40:01.568Z,15.68
2023-04-09T15:42:29.998Z,15.29
2023-04-09T15:44:59.823Z,15.25
2023-04-09T15:47:28.254Z,14.99
2023-04-09T15:49:59.068Z,15.08
2023-04-09T15:52:27.808Z,14.81
2023-04-09T15:54:56.510Z,14.51
2023-04-09T15:57:25.006Z,14.66
2023-04-09T15:59:54.189Z,14.66
2023-04-09T16:02:25.926Z,14.75
2023-04-09T16:04:54.730Z,14.68
2023-04-09T16:07:23.206Z,14.62
2023-04-09T16:09:51.877Z,14.46
2023-04-09T16:12:20.305Z,14.36
2023-04-09T16:14:48.775Z,14.23
2023-04-09T16:17:17.251Z,14.31
2023-04-09T16:19:47.016Z,14.43
2023-04-09T16:22:15.530Z,14.50
2023-04-09T16:24:44.813Z,14.02
2023-04-09T16:27:14.517Z,13.92
2023-04-09T16:29:43.102Z,14.16
2023-04-09T16:32:11.761Z,14.14
2023-04-09T16:34:40.822Z,13.56
2023-04-09T16:37:10.951Z,14.24
2023-04-09T16:39:39.676Z,14.04
2023-04-09T16:42:08.311Z,13.67
2023-04-09T16:44:36.781Z,14.04
2023-04-09T16:47:06.454Z,13.96
2023-04-09T16:49:34.986Z,13.71
2023-04-09T16:52:03.475Z,13.48
2023-04-09T16:54:33.385Z,12.83
2023-04-09T16:57:01.946Z,13.41
2023-04-09T16:59:30.542Z,13.13
2023-04-09T17:01:59.189Z,13.23
2023-04-09T17:04:28.674Z,13.21
2023-04-09T17:06:57.296Z,13.00
2023-04-09T17:09:26.087Z,13.08
2023-04-09T17:11:56.529Z,12.76
2023-04-09T17:14:25.334Z,12.92
2023-04-09T17:16:54.119Z,12.87
2023-04-09T17:19:22.795Z,12.83
2023-04-09T17:21:51.372Z,12.80
2023-04-09T17:24:20.022Z,12.76
2023-04-09T17:26:48.646Z,12.43
2023-04-09T17:29:18.729Z,12.23
2023-04-09T17:31:48.858Z,12.47
2023-04-09T17:34:17.429Z,12.61
2023-04-09T17:36:49.527Z,12.56
2023-04-09T17:39:18.552Z,12.53
2023-04-09T17:41:47.264Z,12.48
2023-04-09T17:44:17.323Z,12.35
2023-04-09T17:46:46.607Z,12.39
2023-04-09T17:49:15.237Z,12.34
2023-04-09T17:51:43.832Z,12.22
2023-04-09T17:54:13.212Z,12.23
2023-04-09T17:56:41.950Z,12.05
2023-04-09T17:59:10.603Z,12.08
2023-04-09T18:01:40.751Z,11.96
2023-04-09T18:04:09.577Z,12.06
2023-04-09T18:06:38.216Z,11.96
2023-04-09T18:09:06.700Z,11.98
2023-04-09T18:11:35.154Z,11.94
2023-04-09T18:14:07.943Z,11.91
2023-04-09T18:16:38.283Z,11.61
2023-04-09T18:19:11.917Z,11.68
2023-04-09T18:21:40.455Z,11.65
2023-04-09T18:24:09.418Z,11.61
2023-04-09T18:26:37.929Z,11.55
2023-04-09T18:29:06.355Z,11.52
2023-04-09T18:31:35.215Z,11.39
2023-04-09T18:34:03.935Z,11.30
2023-04-09T18:36:33.892Z,11.19
2023-04-09T18:39:03.107Z,11.07
2023-04-09T18:41:32.301Z,10.40
2023-04-09T18:44:00.857Z,10.78
2023-04-09T18:46:29.791Z,10.64
2023-04-09T18:48:58.664Z,10.47
2023-04-09T18:51:28.173Z,10.33
2023-04-09T18:54:00.466Z,10.20
2023-04-09T18:56:29.112Z,10.09
2023-04-09T18:58:57.973Z,10.01
2023-04-09T19:01:26.615Z,9.88
2023-04-09T19:03:55.580Z,9.89
2023-04-09T19:06:25.645Z,9.78
2023-04-09T19:08:58.017Z,9.79
2023-04-09T19:11:28.076Z,9.76
2023-04-09T19:13:56.680Z,9.93
2023-04-09T19:16:25.547Z,9.82
2023-04-09T19:18:54.601Z,9.68
2023-04-09T19:21:23.601Z,9.53
2023-04-09T19:23:52.429Z,9.39
2023-04-09T19:26:22.187Z,9.30
2023-04-09T19:28:52.449Z,8.93
2023-04-09T19:31:21.263Z,9.05
2023-04-09T19:33:49.920Z,9.00
2023-04-09T19:36:18.830Z,8.96
2023-04-09T19:38:47.535Z,8.94
2023-04-09T19:41:16.131Z,8.83
2023-04-09T19:43:47.365Z,8.88
2023-04-09T19:46:17.334Z,8.88
2023-04-09T19:48:45.842Z,8.81
2023-04-09T19:51:18.789Z,8.82
2023-04-09T19:53:48.090Z,8.64
2023-04-09T19:56:16.811Z,8.64
2023-04-09T19:58:45.948Z,8.59
2023-04-09T20:01:14.445Z,8.48
2023-04-09T20:03:44.742Z,8.31
2023-04-09T20:06:13.418Z,8.39
2023-04-09T20:08:43.117Z,8.48
2023-04-09T20:11:18.131Z,8.53
2023-04-09T20:13:48.056Z,8.59
2023-04-09T20:16:17.187Z,8.62
2023-04-09T20:18:47.408Z,8.67
2023-04-09T20:21:15.856Z,8.65
2023-04-09T20:23:45.537Z,8.23
2023-04-09T20:26:14.631Z,8.07
2023-04-09T20:28:43.659Z,8.46
2023-04-09T20:31:12.422Z,8.33
2023-04-09T20:33:40.862Z,8.25
2023-04-09T20:36:17.287Z,8.12
2023-04-09T20:38:46.381Z,8.22
2023-04-09T20:41:15.026Z,8.24
2023-04-09T20:43:43.476Z,8.26
2023-04-09T20:46:13.585Z,8.31
2023-04-09T20:48:42.892Z,8.38
2023-04-09T20:51:13.008Z,8.39
2023-04-09T20:53:43.083Z,8.36
2023-04-09T20:56:12.538Z,8.35
2023-04-09T20:58:40.973Z,8.30
2023-04-09T21:01:11.076Z,8.30
2023-04-09T21:03:40.498Z,8.29
2023-04-09T21:06:09.736Z,8.27
2023-04-09T21:08:42.694Z,8.23
2023-04-09T21:11:13.027Z,8.14
2023-04-09T21:13:54.019Z,8.07
2023-04-09T21:16:23.970Z,7.81
2023-04-09T21:18:52.577Z,7.83
2023-04-09T21:21:22.006Z,7.68
2023-04-09T21:23:50.726Z,7.51
2023-04-09T21:26:21.029Z,7.40
2023-04-09T21:28:50.756Z,7.38
2023-04-09T21:31:19.399Z,7.19
2023-04-09T21:33:48.240Z,7.31
2023-04-09T21:36:16.974Z,7.17
2023-04-09T21:38:45.477Z,7.06
2023-04-09T21:41:13.944Z,7.14
2023-04-09T21:43:43.898Z,7.04
2023-04-09T21:46:12.506Z,7.05
2023-04-09T21:48:41.287Z,6.96
2023-04-09T21:51:11.631Z,6.88
2023-04-09T21:53:40.404Z,6.87
2023-04-09T21:56:09.613Z,6.83
2023-04-09T21:58:38.125Z,6.65
2023-04-09T22:01:13.111Z,6.66
2023-04-09T22:03:47.488Z,6.58
2023-04-09T22:06:16.309Z,6.46
2023-04-09T22:08:55.736Z,6.30
2023-04-09T22:11:28.477Z,5.98
2023-04-09T22:13:58.203Z,6.03
2023-04-09T22:16:28.272Z,5.86
2023-04-09T22:18:57.602Z,5.82
2023-04-09T22:21:27.689Z,5.74
2023-04-09T22:23:56.213Z,5.67
2023-04-09T22:26:25.003Z,5.63
2023-04-09T22:28:53.766Z,5.66
2023-04-09T22:31:22.950Z,5.59
2023-04-09T22:33:52.848Z,5.51
2023-04-09T22:36:21.663Z,5.57
2023-04-09T22:38:51.825Z,5.49
2023-04-09T22:41:20.361Z,5.43
2023-04-09T22:43:49.084Z,5.00
2023-04-09T22:46:20.491Z,5.31
2023-04-09T22:48:50.710Z,5.23
2023-04-09T22:51:20.820Z,5.14
2023-04-09T22:53:49.556Z,5.07
2023-04-09T22:56:19.565Z,5.01
2023-04-09T22:58:48.398Z,4.93
2023-04-09T23:01:21.900Z,4.85
2023-04-09T23:03:51.706Z,4.87
2023-04-09T23:06:22.419Z,4.17
2023-04-09T23:08:51.548Z,4.74
2023-04-09T23:11:21.017Z,4.71
2023-04-09T23:13:49.803Z,4.69
2023-04-09T23:16:19.308Z,4.65
2023-04-09T23:18:48.103Z,4.67
2023-04-09T23:21:16.889Z,4.68
2023-04-09T23:23:46.652Z,4.66
2023-04-09T23:26:15.516Z,4.64
2023-04-09T23:28:44.207Z,4.59
2023-04-09T23:31:12.966Z,4.53
2023-04-09T23:33:41.432Z,4.48
2023-04-09T23:36:10.820Z,4.45
2023-04-09T23:38:40.487Z,4.45
2023-04-09T23:41:10.505Z,4.22
2023-04-09T23:43:39.252Z,4.39
2023-04-09T23:46:08.044Z,4.33
2023-04-09T23:48:36.765Z,4.24
2023-04-09T23:51:05.859Z,4.18
2023-04-09T23:53:34.374Z,4.15
2023-04-09T23:56:03.071Z,4.13
2023-04-09T23:58:32.920Z,4.10
